Time;durP1;ratioP1;P1;durP2;ratioP2;P2;SDS_P1;SDS_P2;PMS_P1;PMS_P2;Temp;Humidity;BMP_temperature;BMP_pressure;BME280_temperature;BME280_humidity;BME280_pressure;Samples;Min_cycle;Max_cycle;Signal;HPM_P1;HPM_P2
2021/11/10 00:00:11;;;;;;;74.60;13.97;;;;;;;;;;6287892;22;20409;-95
2021/11/10 00:02:38;;;;;;;71.90;14.40;;;;;;;;;;6286256;22;20405;-96
2021/11/10 00:05:05;;;;;;;73.80;14.03;;;;;;;;;;6285307;22;20413;-94
2021/11/10 00:07:32;;;;;;;70.47;13.43;;;;;;;;;;6287927;22;20515;-96
2021/11/10 00:10:00;;;;;;;70.70;13.60;;;;;;;;;;6285786;22;20409;-95
2021/11/10 00:12:50;;;;;;;70.97;13.10;;;;;;;;;;6287839;22;20413;-96
2021/11/10 00:15:17;;;;;;;71.20;14.30;;;;;;;;;;6285515;22;20468;-96
2021/11/10 00:17:44;;;;;;;70.40;13.90;;;;;;;;;;6291929;22;20421;-95
2021/11/10 00:20:21;;;;;;;69.37;13.10;;;;;;;;;;6287989;22;20385;-96
2021/11/10 00:25:41;;;;;;;70.87;13.73;;;;;;;;;;6267638;22;21008;-96
2021/11/10 00:28:31;;;;;;;71.00;13.90;;;;;;;;;;6285284;22;20441;-96
2021/11/10 00:30:58;;;;;;;71.00;14.07;;;;;;;;;;6286353;22;20436;-96
2021/11/10 00:33:30;;;;;;;71.20;13.67;;;;;;;;;;6279318;22;20397;-96
2021/11/10 00:35:56;;;;;;;71.70;13.27;;;;;;;;;;6285916;22;20445;-96
2021/11/10 00:38:23;;;;;;;71.70;12.90;;;;;;;;;;6281708;22;20477;-96
2021/11/10 00:44:01;;;;;;;69.10;11.90;;;;;;;;;;6239673;22;20474;-96
2021/11/10 00:49:32;;;;;;;72.30;13.53;;;;;;;;;;6269452;22;20452;-96
2021/11/10 00:51:58;;;;;;;71.30;13.50;;;;;;;;;;6237183;22;20466;-96
2021/11/10 00:54:35;;;;;;;71.40;12.93;;;;;;;;;;6292562;22;20405;-96
2021/11/10 01:11:02;;;;;;;72.30;13.80;;;;;;;;;;6269356;22;20456;-96
2021/11/10 01:13:28;;;;;;;72.17;13.93;;;;;;;;;;6284024;22;20409;-95
2021/11/10 01:15:55;;;;;;;71.60;12.73;;;;;;;;;;6284073;22;20405;-96
2021/11/10 01:18:22;;;;;;;71.50;13.13;;;;;;;;;;6286272;22;20405;-95
2021/11/10 01:21:13;;;;;;;71.50;13.60;;;;;;;;;;6292157;22;20397;-96
2021/11/10 01:23:46;;;;;;;71.93;14.07;;;;;;;;;;6259366;22;20476;-96
2021/11/10 01:26:14;;;;;;;70.50;12.73;;;;;;;;;;6298427;22;20389;-96
2021/11/10 01:28:41;;;;;;;70.90;13.90;;;;;;;;;;6286907;22;20448;-95
2021/11/10 01:31:08;;;;;;;72.17;12.83;;;;;;;;;;6283178;22;20471;-96
2021/11/10 01:33:34;;;;;;;70.70;13.50;;;;;;;;;;6289486;22;20408;-96
2021/11/10 01:36:02;;;;;;;73.30;13.50;;;;;;;;;;6292706;22;20405;-96
2021/11/10 01:38:29;;;;;;;72.63;14.10;;;;;;;;;;6286599;22;20423;-96
2021/11/10 01:40:56;;;;;;;73.07;14.33;;;;;;;;;;6288885;22;20807;-95
2021/11/10 01:43:24;;;;;;;71.57;13.03;;;;;;;;;;6289722;22;20405;-96
2021/11/10 01:45:53;;;;;;;72.50;13.60;;;;;;;;;;6301728;22;20393;-96
2021/11/10 01:48:19;;;;;;;71.67;13.07;;;;;;;;;;6298464;22;20444;-95
2021/11/10 01:50:47;;;;;;;73.40;13.53;;;;;;;;;;6296543;22;20396;-96
2021/11/10 01:53:18;;;;;;;74.57;14.00;;;;;;;;;;6292638;22;20401;-96
2021/11/10 01:55:50;;;;;;;75.10;15.07;;;;;;;;;;6268082;22;20417;-96
2021/11/10 01:58:17;;;;;;;72.80;14.60;;;;;;;;;;6299763;22;20408;-96
2021/11/10 02:01:17;;;;;;;74.20;14.20;;;;;;;;;;6296931;22;20396;-96
2021/11/10 02:03:46;;;;;;;73.83;14.80;;;;;;;;;;6292147;22;20389;-96
2021/11/10 02:06:12;;;;;;;75.53;14.20;;;;;;;;;;6291851;22;20401;-96
2021/11/10 02:08:40;;;;;;;72.77;14.67;;;;;;;;;;6291066;22;20543;-96
2021/11/10 02:11:08;;;;;;;75.43;14.50;;;;;;;;;;6287790;22;20409;-96
2021/11/10 02:13:35;;;;;;;73.17;13.70;;;;;;;;;;6287148;22;20409;-96
2021/11/10 02:16:03;;;;;;;75.10;14.97;;;;;;;;;;6286890;22;20423;-96
2021/11/10 02:18:30;;;;;;;74.00;14.73;;;;;;;;;;6284433;22;20405;-95
2021/11/10 02:20:58;;;;;;;76.10;15.10;;;;;;;;;;6285661;22;20409;-96
2021/11/10 02:23:24;;;;;;;70.07;13.47;;;;;;;;;;6293265;22;20439;-95
2021/11/10 02:25:57;;;;;;;72.90;13.93;;;;;;;;;;6261056;22;20485;-95
2021/11/10 02:28:24;;;;;;;74.17;15.10;;;;;;;;;;6285469;22;20454;-96
2021/11/10 02:30:51;;;;;;;73.97;14.87;;;;;;;;;;6281592;22;20455;-94
2021/11/10 02:33:26;;;;;;;73.40;14.97;;;;;;;;;;6282741;22;20417;-92
2021/11/10 02:35:59;;;;;;;74.10;14.57;;;;;;;;;;6286918;22;20435;-96
2021/11/10 02:38:27;;;;;;;72.23;14.00;;;;;;;;;;6290502;22;20431;-95
2021/11/10 02:40:55;;;;;;;74.97;15.13;;;;;;;;;;6284196;22;20427;-96
2021/11/10 02:43:21;;;;;;;70.73;13.23;;;;;;;;;;6284884;22;20477;-95
2021/11/10 02:45:48;;;;;;;72.00;14.30;;;;;;;;;;6258105;22;20401;-96
2021/11/10 02:48:15;;;;;;;76.20;14.33;;;;;;;;;;6283779;22;20460;-96
2021/11/10 02:50:41;;;;;;;76.93;15.53;;;;;;;;;;6283507;22;20409;-95
2021/11/10 02:53:08;;;;;;;75.17;15.07;;;;;;;;;;6282939;22;20409;-95
2021/11/10 02:55:36;;;;;;;76.67;14.80;;;;;;;;;;6283307;22;20413;-95
2021/11/10 02:58:07;;;;;;;73.50;13.63;;;;;;;;;;6296727;22;20421;-96
2021/11/10 03:00:34;;;;;;;72.93;15.70;;;;;;;;;;6288064;22;20413;-96
2021/11/10 03:05:59;;;;;;;71.47;13.77;;;;;;;;;;6286013;22;20401;-96
2021/11/10 03:08:50;;;;;;;75.80;15.17;;;;;;;;;;6288539;22;20448;-96
2021/11/10 03:11:19;;;;;;;74.37;15.00;;;;;;;;;;6272644;22;20413;-95
2021/11/10 03:13:54;;;;;;;74.73;14.30;;;;;;;;;;6237170;22;20440;-96
2021/11/10 03:16:47;;;;;;;74.60;15.30;;;;;;;;;;6293595;22;20491;-96
2021/11/10 03:21:57;;;;;;;74.40;14.80;;;;;;;;;;6278763;22;20474;-96
2021/11/10 03:24:23;;;;;;;73.33;15.17;;;;;;;;;;6292024;22;20417;-96
2021/11/10 03:26:51;;;;;;;74.00;14.67;;;;;;;;;;6286874;22;20428;-96
2021/11/10 03:29:18;;;;;;;73.53;13.97;;;;;;;;;;6285059;22;20444;-96
2021/11/10 03:31:45;;;;;;;71.67;14.07;;;;;;;;;;6286010;22;20397;-96
2021/11/10 03:34:12;;;;;;;72.70;14.40;;;;;;;;;;6286741;22;20414;-95
2021/11/10 03:36:39;;;;;;;75.87;14.03;;;;;;;;;;6285459;22;20404;-96
2021/11/10 03:39:06;;;;;;;70.77;13.03;;;;;;;;;;6286037;22;20416;-96
2021/11/10 03:41:33;;;;;;;74.10;14.50;;;;;;;;;;6284080;22;20415;-95
2021/11/10 03:44:01;;;;;;;74.57;14.40;;;;;;;;;;6284443;22;20799;-95
2021/11/10 03:46:28;;;;;;;73.50;13.40;;;;;;;;;;6284993;22;20834;-95
2021/11/10 03:48:55;;;;;;;75.00;13.70;;;;;;;;;;6285137;22;20455;-96
2021/11/10 03:51:22;;;;;;;75.50;13.37;;;;;;;;;;6285849;22;20762;-96
2021/11/10 03:53:49;;;;;;;72.03;14.00;;;;;;;;;;6285037;22;20413;-95
2021/11/10 03:56:16;;;;;;;72.30;12.90;;;;;;;;;;6285699;22;20405;-96
2021/11/10 03:58:42;;;;;;;71.80;13.10;;;;;;;;;;6285993;22;20420;-96
2021/11/10 04:01:13;;;;;;;72.57;13.70;;;;;;;;;;6285760;22;20817;-95
2021/11/10 04:03:39;;;;;;;69.97;12.93;;;;;;;;;;6284262;22;20412;-95
2021/11/10 04:06:06;;;;;;;70.90;13.40;;;;;;;;;;6284624;22;20423;-95
2021/11/10 04:08:33;;;;;;;73.33;12.97;;;;;;;;;;6283931;22;20433;-94
2021/11/10 04:11:01;;;;;;;71.57;12.90;;;;;;;;;;6284691;22;20960;-95
2021/11/10 04:13:28;;;;;;;73.60;13.87;;;;;;;;;;6289921;22;20431;-96
2021/11/10 04:15:56;;;;;;;71.20;13.00;;;;;;;;;;6291467;22;20424;-96
2021/11/10 04:18:27;;;;;;;74.27;13.83;;;;;;;;;;6260634;22;20440;-96
2021/11/10 04:20:53;;;;;;;74.53;13.70;;;;;;;;;;6287356;22;20436;-96
2021/11/10 04:25:55;;;;;;;74.33;14.80;;;;;;;;;;6269842;22;20186;-96
2021/11/10 04:28:22;;;;;;;74.75;14.10;;;;;;;;;;6289510;22;20455;-95
2021/11/10 04:30:49;;;;;;;74.00;14.55;;;;;;;;;;6289228;22;20177;-95
2021/11/10 04:33:16;;;;;;;74.30;14.67;;;;;;;;;;6260100;22;20180;-96
2021/11/10 04:35:44;;;;;;;76.45;14.35;;;;;;;;;;6283050;22;20397;-95
2021/11/10 04:38:11;;;;;;;76.77;15.90;;;;;;;;;;6286019;22;20184;-96
2021/11/10 04:40:37;;;;;;;78.83;15.33;;;;;;;;;;6294724;22;20509;-96
2021/11/10 04:43:04;;;;;;;75.00;15.97;;;;;;;;;;6283603;22;20417;-94
2021/11/10 04:45:32;;;;;;;72.60;13.87;;;;;;;;;;6284299;22;20417;-95
2021/11/10 04:47:59;;;;;;;75.70;14.37;;;;;;;;;;6283921;22;20415;-94
2021/11/10 04:50:25;;;;;;;73.47;14.17;;;;;;;;;;6283290;22;20448;-95
2021/11/10 04:52:54;;;;;;;72.88;13.98;;;;;;;;;;6284188;22;21434;-96
2021/11/10 04:55:20;;;;;;;71.00;12.97;;;;;;;;;;6284573;22;20178;-94
2021/11/10 04:57:47;;;;;;;71.40;13.23;;;;;;;;;;6285036;22;20804;-94
2021/11/10 05:00:14;;;;;;;74.05;13.05;;;;;;;;;;6287518;22;20447;-96
2021/11/10 05:02:41;;;;;;;78.80;14.57;;;;;;;;;;6295561;22;20174;-96
2021/11/10 05:05:08;;;;;;;81.43;17.90;;;;;;;;;;6286213;22;20408;-95
2021/11/10 05:07:35;;;;;;;73.83;13.17;;;;;;;;;;6288866;22;20171;-94
2021/11/10 05:10:04;;;;;;;70.30;12.57;;;;;;;;;;6286564;22;20456;-95
2021/11/10 05:12:30;;;;;;;74.67;14.23;;;;;;;;;;6285024;22;20405;-95
2021/11/10 05:14:57;;;;;;;76.40;15.35;;;;;;;;;;6286408;22;20417;-96
2021/11/10 05:17:24;;;;;;;71.97;13.80;;;;;;;;;;6285911;22;20174;-96
2021/11/10 05:19:51;;;;;;;75.77;14.97;;;;;;;;;;6284627;22;20427;-95
2021/11/10 05:22:17;;;;;;;74.67;14.77;;;;;;;;;;6284464;22;20405;-94
2021/11/10 05:24:44;;;;;;;75.80;14.80;;;;;;;;;;6282609;22;20440;-95
2021/11/10 05:27:12;;;;;;;78.70;15.20;;;;;;;;;;6282528;22;20409;-94
2021/11/10 05:29:39;;;;;;;78.10;15.93;;;;;;;;;;6281528;22;20448;-94
2021/11/10 05:32:06;;;;;;;74.60;15.70;;;;;;;;;;6281966;22;20409;-94
2021/11/10 05:34:35;;;;;;;77.43;15.57;;;;;;;;;;6285258;22;20436;-96
2021/11/10 05:37:01;;;;;;;78.60;15.43;;;;;;;;;;6285929;22;20416;-96
2021/11/10 05:39:28;;;;;;;80.20;16.40;;;;;;;;;;6258567;22;20467;-95
2021/11/10 05:41:54;;;;;;;76.50;14.67;;;;;;;;;;6284440;22;20416;-95
2021/11/10 05:44:22;;;;;;;81.03;16.60;;;;;;;;;;6281900;22;20440;-96
2021/11/10 05:46:49;;;;;;;75.80;15.40;;;;;;;;;;6284546;22;20411;-96
2021/11/10 05:49:16;;;;;;;79.77;16.90;;;;;;;;;;6290308;22;20441;-96
2021/11/10 05:51:43;;;;;;;84.10;17.27;;;;;;;;;;6285571;22;20416;-96
2021/11/10 05:54:09;;;;;;;85.80;17.60;;;;;;;;;;6283628;22;20419;-95
2021/11/10 05:56:39;;;;;;;83.10;16.77;;;;;;;;;;6282700;22;20398;-94
2021/11/10 05:59:06;;;;;;;82.47;17.93;;;;;;;;;;6282449;22;21177;-94
2021/11/10 06:01:34;;;;;;;81.20;17.70;;;;;;;;;;6285673;22;20405;-95
2021/11/10 06:04:01;;;;;;;83.83;18.10;;;;;;;;;;6285701;22;20409;-95
2021/11/10 06:06:28;;;;;;;81.53;18.87;;;;;;;;;;6289092;22;20404;-96
2021/11/10 06:08:57;;;;;;;86.97;17.60;;;;;;;;;;6291777;22;20416;-96
2021/11/10 06:11:24;;;;;;;78.97;17.77;;;;;;;;;;6295581;22;20420;-96
2021/11/10 06:13:54;;;;;;;80.13;18.87;;;;;;;;;;6298896;22;20397;-96
2021/11/10 06:16:21;;;;;;;80.67;18.00;;;;;;;;;;6257331;22;20417;-95
2021/11/10 06:18:56;;;;;;;83.50;19.17;;;;;;;;;;6295390;22;20419;-96
2021/11/10 06:21:28;;;;;;;82.57;19.17;;;;;;;;;;6295605;22;20489;-96
2021/11/10 06:23:54;;;;;;;86.77;21.30;;;;;;;;;;6291259;22;20436;-96
2021/11/10 06:26:23;;;;;;;87.23;22.33;;;;;;;;;;6290618;22;20438;-96
2021/11/10 06:28:52;;;;;;;84.57;20.77;;;;;;;;;;6288141;22;20894;-96
2021/11/10 06:31:19;;;;;;;81.63;19.60;;;;;;;;;;6287406;22;20471;-94
2021/11/10 06:33:45;;;;;;;80.57;20.33;;;;;;;;;;6282918;22;20408;-96
2021/11/10 06:36:13;;;;;;;85.17;21.10;;;;;;;;;;6283119;22;20423;-96
2021/11/10 06:38:40;;;;;;;82.20;20.70;;;;;;;;;;6282200;22;20401;-94
2021/11/10 06:41:08;;;;;;;82.50;20.27;;;;;;;;;;6283365;22;20941;-96
2021/11/10 06:43:35;;;;;;;89.00;22.93;;;;;;;;;;6283130;22;20404;-92
2021/11/10 06:46:02;;;;;;;89.57;22.00;;;;;;;;;;6284590;22;20421;-92
2021/11/10 06:48:29;;;;;;;85.07;22.33;;;;;;;;;;6287589;22;21145;-95
2021/11/10 06:50:56;;;;;;;92.17;23.23;;;;;;;;;;6282540;22;20441;-95
2021/11/10 06:53:24;;;;;;;86.10;21.97;;;;;;;;;;6286353;22;20409;-95
2021/11/10 06:55:50;;;;;;;92.83;22.20;;;;;;;;;;6286772;22;20416;-95
2021/11/10 06:58:17;;;;;;;87.23;21.90;;;;;;;;;;6288619;22;20408;-95
2021/11/10 07:00:50;;;;;;;87.93;22.07;;;;;;;;;;6291623;22;20404;-95
2021/11/10 07:03:17;;;;;;;88.97;22.67;;;;;;;;;;6284419;22;20439;-93
2021/11/10 07:05:44;;;;;;;84.27;21.40;;;;;;;;;;6284995;22;20420;-96
2021/11/10 07:08:12;;;;;;;87.57;21.43;;;;;;;;;;6290709;22;20450;-95
2021/11/10 07:10:40;;;;;;;84.83;21.07;;;;;;;;;;6289847;22;20558;-94
2021/11/10 07:13:06;;;;;;;84.27;21.33;;;;;;;;;;6294196;22;20428;-94
2021/11/10 07:15:37;;;;;;;85.67;21.63;;;;;;;;;;6294262;22;20439;-95
2021/11/10 07:18:04;;;;;;;80.90;20.93;;;;;;;;;;6270891;22;20464;-94
2021/11/10 07:20:31;;;;;;;86.23;20.30;;;;;;;;;;6287947;22;20417;-95
2021/11/10 07:22:58;;;;;;;85.90;21.10;;;;;;;;;;6294668;22;20469;-94
2021/11/10 07:25:25;;;;;;;81.30;20.90;;;;;;;;;;6290306;22;20482;-95
2021/11/10 07:27:53;;;;;;;83.80;20.73;;;;;;;;;;6287907;22;20476;-93
2021/11/10 07:30:20;;;;;;;80.53;20.67;;;;;;;;;;6294085;22;21036;-95
2021/11/10 07:32:47;;;;;;;84.20;21.13;;;;;;;;;;6290392;22;20412;-95
2021/11/10 07:35:14;;;;;;;81.30;20.00;;;;;;;;;;6289638;22;20405;-94
2021/11/10 07:37:44;;;;;;;77.80;18.30;;;;;;;;;;6296017;22;20416;-96
2021/11/10 07:40:11;;;;;;;76.67;15.37;;;;;;;;;;6292391;22;20401;-94
2021/11/10 07:42:40;;;;;;;73.57;15.43;;;;;;;;;;6293262;22;20473;-96
2021/11/10 07:45:11;;;;;;;72.37;14.30;;;;;;;;;;6272370;22;20439;-96
2021/11/10 07:47:41;;;;;;;72.50;15.27;;;;;;;;;;6292334;22;20881;-95
2021/11/10 07:50:09;;;;;;;76.80;17.47;;;;;;;;;;6288680;22;20454;-96
2021/11/10 07:52:35;;;;;;;79.50;18.07;;;;;;;;;;6286867;22;20409;-95
2021/11/10 07:55:02;;;;;;;76.77;17.40;;;;;;;;;;6285570;22;20409;-94
2021/11/10 07:57:33;;;;;;;79.80;17.80;;;;;;;;;;6286176;22;20413;-95
2021/11/10 08:00:00;;;;;;;78.90;16.37;;;;;;;;;;6286181;22;20420;-95
2021/11/10 08:02:28;;;;;;;80.27;17.27;;;;;;;;;;6287356;22;20405;-95
2021/11/10 08:04:54;;;;;;;75.97;16.37;;;;;;;;;;6283461;22;20413;-92
2021/11/10 08:07:21;;;;;;;77.33;17.30;;;;;;;;;;6282859;22;20435;-95
2021/11/10 08:09:48;;;;;;;76.60;16.53;;;;;;;;;;6284378;22;20436;-96
2021/11/10 08:12:15;;;;;;;77.40;17.33;;;;;;;;;;6283390;22;20408;-95
2021/11/10 08:14:42;;;;;;;75.77;16.73;;;;;;;;;;6296838;22;20433;-96
2021/11/10 08:17:14;;;;;;;73.27;17.03;;;;;;;;;;6288629;22;20408;-96
2021/11/10 08:19:45;;;;;;;74.67;16.23;;;;;;;;;;6297236;22;20390;-96
2021/11/10 08:22:12;;;;;;;76.17;16.60;;;;;;;;;;6292667;22;20417;-95
2021/11/10 08:24:40;;;;;;;80.13;17.00;;;;;;;;;;6293147;22;20417;-96
2021/11/10 08:27:16;;;;;;;74.83;16.90;;;;;;;;;;6295204;22;20405;-96
2021/11/10 08:29:45;;;;;;;74.57;15.00;;;;;;;;;;6290322;22;20393;-95
2021/11/10 08:32:13;;;;;;;76.60;16.90;;;;;;;;;;6291204;22;20408;-94
2021/11/10 08:34:39;;;;;;;76.60;17.50;;;;;;;;;;6280106;22;20413;-93
2021/11/10 08:37:08;;;;;;;76.37;16.10;;;;;;;;;;6280218;22;20419;-94
2021/11/10 08:39:34;;;;;;;74.83;15.67;;;;;;;;;;6282362;22;20416;-92
2021/11/10 08:42:03;;;;;;;77.03;17.37;;;;;;;;;;6283212;22;20417;-94
2021/11/10 08:44:32;;;;;;;73.47;15.93;;;;;;;;;;6283016;22;20413;-93
2021/11/10 08:46:58;;;;;;;74.30;16.87;;;;;;;;;;6283156;22;20946;-93
2021/11/10 08:49:25;;;;;;;75.80;18.40;;;;;;;;;;6283560;22;20418;-93
2021/11/10 08:51:52;;;;;;;74.63;15.97;;;;;;;;;;6283625;22;20962;-93
2021/11/10 08:54:25;;;;;;;73.97;16.10;;;;;;;;;;6283853;22;20412;-94
2021/11/10 08:56:52;;;;;;;78.10;17.13;;;;;;;;;;6269411;22;20509;-96
2021/11/10 08:59:19;;;;;;;75.13;15.83;;;;;;;;;;6290501;22;20475;-93
2021/11/10 09:01:45;;;;;;;74.50;16.77;;;;;;;;;;6284885;22;20414;-92
2021/11/10 09:04:15;;;;;;;75.03;16.00;;;;;;;;;;6278996;22;20461;-90
2021/11/10 09:06:41;;;;;;;74.00;16.10;;;;;;;;;;6281196;22;20410;-92
2021/11/10 09:09:08;;;;;;;75.87;16.27;;;;;;;;;;6277793;22;20465;-89
2021/11/10 09:11:36;;;;;;;77.90;16.87;;;;;;;;;;6284624;22;20454;-89
2021/11/10 09:14:02;;;;;;;74.57;16.37;;;;;;;;;;6279878;22;20496;-88
2021/11/10 09:16:29;;;;;;;73.70;16.27;;;;;;;;;;6281470;22;20410;-90
2021/11/10 09:18:55;;;;;;;72.73;16.53;;;;;;;;;;6279931;22;20409;-90
2021/11/10 09:21:22;;;;;;;72.67;16.53;;;;;;;;;;6283282;22;20411;-90
2021/11/10 09:23:48;;;;;;;72.37;15.77;;;;;;;;;;6282866;22;20409;-90
2021/11/10 09:26:15;;;;;;;74.27;15.90;;;;;;;;;;6280368;22;20465;-90
2021/11/10 09:28:42;;;;;;;76.97;15.27;;;;;;;;;;6280069;22;20407;-92
2021/11/10 09:31:09;;;;;;;72.10;15.10;;;;;;;;;;6282826;22;20467;-91
2021/11/10 09:33:39;;;;;;;73.90;14.53;;;;;;;;;;6283150;22;20405;-89
2021/11/10 09:36:05;;;;;;;71.87;15.00;;;;;;;;;;6281285;22;20448;-90
2021/11/10 09:38:32;;;;;;;73.17;13.90;;;;;;;;;;6281647;22;20405;-89
2021/11/10 09:41:00;;;;;;;72.00;15.00;;;;;;;;;;6280605;22;20417;-91
2021/11/10 09:43:29;;;;;;;69.97;13.37;;;;;;;;;;6281197;22;20434;-91
2021/11/10 09:45:58;;;;;;;70.57;14.13;;;;;;;;;;6281180;22;21326;-90
2021/11/10 09:48:24;;;;;;;76.40;14.43;;;;;;;;;;6282000;22;20415;-90
2021/11/10 09:50:51;;;;;;;72.17;15.33;;;;;;;;;;6283994;22;20760;-90
2021/11/10 09:53:19;;;;;;;70.23;15.10;;;;;;;;;;6283736;22;20405;-90
2021/11/10 09:55:45;;;;;;;72.73;14.60;;;;;;;;;;6281820;22;20487;-91
2021/11/10 09:58:12;;;;;;;70.37;14.00;;;;;;;;;;6281079;22;20694;-90
2021/11/10 10:00:40;;;;;;;69.20;14.07;;;;;;;;;;6282966;22;20427;-91
2021/11/10 10:03:08;;;;;;;74.37;15.33;;;;;;;;;;6282892;22;20780;-90
2021/11/10 10:05:36;;;;;;;71.93;15.00;;;;;;;;;;6282955;22;20413;-90
2021/11/10 10:08:03;;;;;;;69.80;15.10;;;;;;;;;;6282755;22;20408;-91
2021/11/10 10:10:30;;;;;;;70.20;14.37;;;;;;;;;;6283007;22;20440;-92
2021/11/10 10:12:59;;;;;;;72.40;14.83;;;;;;;;;;6283240;22;20463;-91
2021/11/10 10:15:26;;;;;;;72.10;15.27;;;;;;;;;;6281579;22;20834;-91
2021/11/10 10:17:57;;;;;;;71.70;15.50;;;;;;;;;;6282758;22;20757;-91
2021/11/10 10:20:26;;;;;;;72.23;15.87;;;;;;;;;;6283018;22;20408;-93
2021/11/10 10:22:53;;;;;;;72.90;15.47;;;;;;;;;;6282838;22;20714;-91
2021/11/10 10:25:21;;;;;;;73.47;15.27;;;;;;;;;;6283560;22;20444;-90
2021/11/10 10:27:54;;;;;;;71.47;15.03;;;;;;;;;;6282883;22;20409;-92
2021/11/10 10:30:25;;;;;;;72.43;15.43;;;;;;;;;;6282759;22;20412;-90
2021/11/10 10:32:55;;;;;;;91.60;23.60;;;;;;;;;;6282329;22;20401;-91
2021/11/10 10:35:31;;;;;;;77.47;18.17;;;;;;;;;;6284971;22;20427;-91
2021/11/10 10:37:58;;;;;;;76.07;18.00;;;;;;;;;;6285605;22;20408;-91
2021/11/10 10:40:25;;;;;;;72.73;15.70;;;;;;;;;;6283806;22;20405;-91
2021/11/10 10:42:51;;;;;;;73.27;16.00;;;;;;;;;;6283576;22;20483;-90
2021/11/10 10:45:28;;;;;;;72.20;15.10;;;;;;;;;;6284708;22;20429;-90
2021/11/10 10:47:55;;;;;;;77.27;18.03;;;;;;;;;;6284397;22;20404;-92
2021/11/10 10:50:31;;;;;;;74.70;15.10;;;;;;;;;;6283853;22;20412;-91
2021/11/10 10:52:58;;;;;;;82.17;20.63;;;;;;;;;;6284594;22;20423;-93
2021/11/10 10:55:31;;;;;;;73.50;15.20;;;;;;;;;;6281983;22;21199;-90
2021/11/10 10:57:58;;;;;;;73.17;15.67;;;;;;;;;;6281219;22;20405;-90
2021/11/10 11:00:27;;;;;;;71.13;14.90;;;;;;;;;;6283964;22;20427;-89
2021/11/10 11:02:54;;;;;;;73.27;15.13;;;;;;;;;;6284206;22;20404;-90
2021/11/10 11:05:35;;;;;;;109.87;29.73;;;;;;;;;;6284467;22;20435;-90
2021/11/10 11:08:23;;;;;;;126.63;36.77;;;;;;;;;;6281986;22;20496;-90
2021/11/10 11:10:50;;;;;;;74.47;15.90;;;;;;;;;;6282845;22;20440;-91
2021/11/10 11:13:20;;;;;;;431.50;173.37;;;;;;;;;;6283294;22;20409;-89
2021/11/10 11:15:59;;;;;;;135.47;40.20;;;;;;;;;;6284305;22;20495;-89
2021/11/10 11:18:25;;;;;;;77.33;17.00;;;;;;;;;;6283060;22;20747;-89
2021/11/10 11:20:52;;;;;;;74.27;15.80;;;;;;;;;;6279787;22;20466;-88
2021/11/10 11:23:20;;;;;;;73.13;14.23;;;;;;;;;;6281610;22;20413;-89
2021/11/10 11:25:46;;;;;;;80.33;18.83;;;;;;;;;;6285381;22;21212;-89
2021/11/10 11:28:14;;;;;;;164.03;48.80;;;;;;;;;;6285174;22;20409;-89
2021/11/10 11:30:41;;;;;;;73.00;15.70;;;;;;;;;;6281761;22;20412;-88
2021/11/10 11:33:09;;;;;;;71.03;15.67;;;;;;;;;;6282785;22;20465;-89
2021/11/10 11:35:37;;;;;;;71.07;15.83;;;;;;;;;;6283809;22;21302;-89
2021/11/10 11:38:04;;;;;;;72.47;15.70;;;;;;;;;;6283395;22;20405;-90
2021/11/10 11:40:34;;;;;;;73.57;16.10;;;;;;;;;;6283765;22;20413;-88
2021/11/10 11:43:01;;;;;;;71.90;16.77;;;;;;;;;;6283062;22;20419;-90
2021/11/10 11:45:29;;;;;;;72.23;15.77;;;;;;;;;;6284170;22;20455;-89
2021/11/10 11:47:56;;;;;;;75.50;16.20;;;;;;;;;;6284310;22;20412;-89
2021/11/10 11:50:23;;;;;;;75.03;17.40;;;;;;;;;;6283601;22;20409;-90
2021/11/10 11:52:51;;;;;;;70.70;16.27;;;;;;;;;;6282620;22;21117;-89
2021/11/10 11:55:21;;;;;;;73.00;15.97;;;;;;;;;;6284070;22;20429;-90
2021/11/10 11:57:50;;;;;;;73.60;16.03;;;;;;;;;;6284087;22;20429;-90
2021/11/10 12:00:18;;;;;;;74.17;16.97;;;;;;;;;;6281262;22;20413;-89
2021/11/10 12:02:46;;;;;;;72.73;16.20;;;;;;;;;;6281531;22;20416;-89
2021/11/10 12:05:14;;;;;;;72.87;15.43;;;;;;;;;;6282754;22;20435;-90
2021/11/10 12:07:46;;;;;;;71.70;15.67;;;;;;;;;;6282969;22;20439;-91
2021/11/10 12:10:29;;;;;;;71.33;15.00;;;;;;;;;;6283130;22;20437;-94
2021/11/10 12:13:07;;;;;;;74.30;15.70;;;;;;;;;;6284926;22;20449;-91
2021/11/10 12:15:48;;;;;;;77.90;17.27;;;;;;;;;;6283932;22;20416;-89
2021/11/10 12:18:21;;;;;;;73.30;16.47;;;;;;;;;;6285678;22;20404;-93
2021/11/10 12:20:48;;;;;;;72.93;16.17;;;;;;;;;;6282731;22;20472;-89
2021/11/10 12:23:14;;;;;;;71.60;16.03;;;;;;;;;;6282620;22;20405;-91
2021/11/10 12:26:01;;;;;;;73.00;16.27;;;;;;;;;;6277662;22;20462;-93
2021/11/10 12:32:01;;;;;;;72.80;17.43;;;;;;;;;;6199924;23;20454;-96
2021/11/10 12:34:41;;;;;;;73.50;17.10;;;;;;;;;;6178134;23;20416;-96
2021/11/10 12:37:40;;;;;;;73.90;16.97;;;;;;;;;;6199718;23;20430;-96
2021/11/10 12:43:18;;;;;;;73.20;17.03;;;;;;;;;;6215158;22;20437;-95
2021/11/10 12:45:57;;;;;;;70.30;15.80;;;;;;;;;;6293227;22;20432;-96
2021/11/10 12:57:34;;;;;;;72.40;16.43;;;;;;;;;;6288730;22;20507;-96
2021/11/10 13:00:07;;;;;;;72.53;16.50;;;;;;;;;;6299977;22;20401;-96
2021/11/10 13:02:37;;;;;;;72.60;16.87;;;;;;;;;;6298938;22;20393;-96
2021/11/10 13:05:06;;;;;;;71.87;16.97;;;;;;;;;;6287870;22;20495;-96
2021/11/10 13:07:34;;;;;;;71.30;16.67;;;;;;;;;;6288552;22;20492;-96
2021/11/10 13:10:05;;;;;;;74.20;17.07;;;;;;;;;;6259487;23;20431;-96
2021/11/10 13:12:39;;;;;;;72.23;17.00;;;;;;;;;;6233823;23;20528;-96
2021/11/10 13:15:09;;;;;;;74.47;17.70;;;;;;;;;;6260345;23;20406;-96
2021/11/10 13:17:38;;;;;;;73.97;16.90;;;;;;;;;;6257259;23;20405;-96
2021/11/10 13:20:24;;;;;;;74.67;16.90;;;;;;;;;;6258233;23;20394;-96
2021/11/10 13:22:51;;;;;;;74.43;17.37;;;;;;;;;;6252782;23;20417;-96
2021/11/10 13:25:19;;;;;;;71.57;16.60;;;;;;;;;;6271487;22;20405;-96
2021/11/10 13:27:49;;;;;;;72.33;16.50;;;;;;;;;;6263929;23;20398;-96
2021/11/10 13:33:50;;;;;;;71.00;16.33;;;;;;;;;;6263474;22;20461;-96
2021/11/10 13:39:24;;;;;;;72.40;15.70;;;;;;;;;;6194617;23;20406;-96
2021/11/10 13:41:51;;;;;;;69.60;15.27;;;;;;;;;;6267442;22;20400;-95
2021/11/10 13:44:23;;;;;;;72.70;16.67;;;;;;;;;;6267875;23;20444;-96
2021/11/10 13:46:54;;;;;;;70.93;16.00;;;;;;;;;;6260452;23;20520;-95
2021/11/10 13:49:27;;;;;;;71.00;15.47;;;;;;;;;;6258096;23;20937;-96
2021/11/10 13:52:03;;;;;;;71.80;15.70;;;;;;;;;;6230432;23;20445;-95
2021/11/10 13:54:33;;;;;;;70.70;15.30;;;;;;;;;;6255933;23;20426;-95
2021/11/10 14:00:00;;;;;;;71.83;15.90;;;;;;;;;;6266517;23;20388;-96
2021/11/10 14:02:31;;;;;;;70.20;15.33;;;;;;;;;;6259784;23;20958;-95
2021/11/10 14:04:58;;;;;;;74.93;16.40;;;;;;;;;;6256704;23;20414;-96
2021/11/10 14:07:25;;;;;;;71.37;15.67;;;;;;;;;;6251448;23;20405;-93
2021/11/10 14:09:54;;;;;;;70.40;15.40;;;;;;;;;;6253483;23;20410;-96
2021/11/10 14:17:54;;;;;;;70.40;15.60;;;;;;;;;;6235172;22;20512;-95
2021/11/10 14:20:23;;;;;;;70.60;15.33;;;;;;;;;;6252136;22;20441;-95
2021/11/10 14:25:58;;;;;;;69.97;15.60;;;;;;;;;;6198713;23;20395;-96
2021/11/10 14:31:45;;;;;;;72.20;15.90;;;;;;;;;;6147891;23;20456;-95
2021/11/10 14:34:12;;;;;;;70.23;15.03;;;;;;;;;;6255037;23;20402;-94
2021/11/10 14:39:27;;;;;;;69.00;15.40;;;;;;;;;;6194313;23;21012;-95
2021/11/10 14:47:59;;;;;;;71.37;15.03;;;;;;;;;;6210799;22;20528;-96
2021/11/10 14:59:33;;;;;;;71.50;15.07;;;;;;;;;;6234807;22;20453;-95
2021/11/10 15:02:10;;;;;;;69.57;14.20;;;;;;;;;;6254629;23;20413;-96
2021/11/10 15:04:43;;;;;;;68.67;15.00;;;;;;;;;;6259868;23;20477;-93
2021/11/10 15:13:38;;;;;;;72.90;15.17;;;;;;;;;;6198531;23;20464;-94
2021/11/10 15:19:35;;;;;;;70.17;14.40;;;;;;;;;;6215332;23;20468;-96
2021/11/10 15:22:04;;;;;;;72.03;16.30;;;;;;;;;;6250772;23;20424;-96
2021/11/10 15:24:35;;;;;;;70.17;15.70;;;;;;;;;;6263790;23;21210;-96
2021/11/10 15:32:22;;;;;;;74.43;15.23;;;;;;;;;;6237432;22;20484;-94
2021/11/10 15:34:48;;;;;;;71.40;14.40;;;;;;;;;;6253090;23;20402;-92
2021/11/10 15:37:23;;;;;;;71.73;15.00;;;;;;;;;;6254972;23;20401;-94
2021/11/10 15:40:09;;;;;;;72.53;15.40;;;;;;;;;;6266728;23;20464;-95
2021/11/10 15:42:36;;;;;;;73.93;16.00;;;;;;;;;;6264487;23;20416;-95
2021/11/10 15:45:02;;;;;;;73.23;14.67;;;;;;;;;;6252066;23;20420;-94
2021/11/10 15:47:32;;;;;;;72.57;15.00;;;;;;;;;;6252397;23;20421;-96
2021/11/10 15:50:01;;;;;;;75.77;15.60;;;;;;;;;;6254492;23;20436;-96
2021/11/10 15:52:29;;;;;;;74.03;17.30;;;;;;;;;;6257029;23;20450;-94
2021/11/10 15:55:04;;;;;;;86.27;22.53;;;;;;;;;;6261340;23;20404;-96
2021/11/10 15:57:48;;;;;;;82.87;20.20;;;;;;;;;;6265518;23;20404;-95
2021/11/10 16:02:46;;;;;;;75.13;16.40;;;;;;;;;;6235168;22;20444;-96
2021/11/10 16:05:44;;;;;;;81.77;17.47;;;;;;;;;;6256449;23;20439;-96
2021/11/10 16:11:39;;;;;;;77.57;16.80;;;;;;;;;;6233176;23;20428;-96
2021/11/10 16:24:52;;;;;;;70.40;14.73;;;;;;;;;;6233902;23;20400;-96
2021/11/10 16:44:54;;;;;;;;;;;;;;;;;;;;;